Terminal Aerodrome Forecast
Issued by NWS

Home | Current Version | Previous Version | Text Only | Print | Product List | Glossary On
Versions: 1 2 3 4 5 6 7 8 9 10 11 12 13 14 15 16 17 18
000
FTUS42 TJSJ 221000 AAA
TAFJSJ
TAF AMD
TJSJ 221011Z 2210/2306 10003KT P6SM VCSH SCT025 BKN080
      TEMPO 2211/2215 3SM SHRA BKN025
     FM221500 08012KT P6SM VCTS SCT025CB BKN060
     FM222200 09007KT P6SM FEW025=

USA.gov is the U.S. government's official web portal to all federal, state and local government web resources and services.